createdAt,value
2022-11-30T04:47:39.699Z,10.40
2022-11-30T04:50:07.264Z,10.40
2022-11-30T04:52:34.458Z,10.30
2022-11-30T04:55:01.485Z,10.30
2022-11-30T04:57:31.346Z,10.30
2022-11-30T04:59:58.252Z,10.30
2022-11-30T05:02:25.151Z,10.30
2022-11-30T05:04:52.138Z,10.30
2022-11-30T05:07:19.154Z,10.30
2022-11-30T05:09:46.123Z,10.40
2022-11-30T05:12:13.058Z,10.40
2022-11-30T05:14:40.095Z,10.60
2022-11-30T05:17:07.028Z,10.50
2022-11-30T05:19:33.943Z,10.50
2022-11-30T05:22:00.826Z,10.40
2022-11-30T05:24:27.941Z,10.40
2022-11-30T05:26:54.835Z,10.40
2022-11-30T05:29:21.715Z,10.40
2022-11-30T05:31:48.697Z,10.40
2022-11-30T05:34:15.804Z,10.30
2022-11-30T05:36:42.841Z,10.40
2022-11-30T05:39:09.742Z,10.30
2022-11-30T05:41:36.853Z,10.30
2022-11-30T05:44:04.049Z,10.30
2022-11-30T05:46:31.042Z,10.30
2022-11-30T05:48:58.009Z,10.30
2022-11-30T05:51:24.991Z,10.30
2022-11-30T05:53:51.901Z,10.30
2022-11-30T05:56:20.254Z,10.30
2022-11-30T05:58:47.379Z,10.30
2022-11-30T06:01:21.331Z,10.20
2022-11-30T06:03:48.431Z,10.20
2022-11-30T06:06:15.605Z,10.20
2022-11-30T06:08:43.990Z,10.40
2022-11-30T06:11:11.013Z,10.30
2022-11-30T06:13:38.977Z,10.30
2022-11-30T06:16:06.413Z,10.30
2022-11-30T06:18:33.653Z,10.30
2022-11-30T06:21:04.582Z,10.30
2022-11-30T06:23:32.078Z,10.30
2022-11-30T06:25:59.048Z,10.40
2022-11-30T06:28:26.069Z,10.50
2022-11-30T06:30:52.957Z,10.50
2022-11-30T06:33:22.565Z,10.50
2022-11-30T06:35:49.527Z,10.50
2022-11-30T06:38:16.452Z,10.60
2022-11-30T06:40:43.385Z,10.60
2022-11-30T06:43:10.427Z,10.60
2022-11-30T06:45:37.405Z,10.80
2022-11-30T06:48:04.680Z,10.60
2022-11-30T06:50:31.591Z,10.60
2022-11-30T06:52:58.962Z,10.60
2022-11-30T06:55:25.948Z,10.60
2022-11-30T06:57:52.904Z,10.70
2022-11-30T07:00:19.972Z,10.50
2022-11-30T07:02:46.868Z,10.50
2022-11-30T07:05:13.759Z,10.40
2022-11-30T07:07:40.695Z,10.30
2022-11-30T07:10:08.040Z,10.30
2022-11-30T07:12:35.195Z,10.30
2022-11-30T07:15:02.204Z,10.20
2022-11-30T07:17:29.143Z,10.10
2022-11-30T07:19:56.078Z,10.10
2022-11-30T07:22:23.017Z,10.00
2022-11-30T07:25:08.520Z,10.00
2022-11-30T07:27:35.411Z,10.00
2022-11-30T07:30:02.347Z,10.00
2022-11-30T07:32:29.254Z,10.00
2022-11-30T07:34:56.127Z,10.00
2022-11-30T07:37:23.084Z,10.00
2022-11-30T07:39:50.034Z,10.00
2022-11-30T07:42:17.687Z,10.00
2022-11-30T07:44:44.872Z,10.00
2022-11-30T07:47:11.910Z,10.00
2022-11-30T07:49:39.848Z,10.00
2022-11-30T07:52:06.821Z,10.00
2022-11-30T07:54:33.923Z,10.10
2022-11-30T07:57:00.937Z,10.00
2022-11-30T07:59:27.919Z,10.00
2022-11-30T08:01:54.853Z,10.00
2022-11-30T08:04:21.828Z,10.00
2022-11-30T08:06:49.001Z,10.00
2022-11-30T08:09:20.530Z,10.00
2022-11-30T08:11:48.388Z,10.00
2022-11-30T08:14:15.323Z,9.90
2022-11-30T08:16:44.110Z,9.90
2022-11-30T08:19:11.111Z,9.90
2022-11-30T08:21:38.085Z,9.90
2022-11-30T08:24:05.713Z,9.90
2022-11-30T08:26:33.867Z,10.00
2022-11-30T08:29:01.368Z,10.00
2022-11-30T08:31:28.273Z,10.00
2022-11-30T08:33:59.185Z,10.00
2022-11-30T08:36:27.205Z,10.00
2022-11-30T08:38:54.723Z,10.00
2022-11-30T08:41:22.007Z,10.00
2022-11-30T08:43:49.645Z,10.00
2022-11-30T08:49:20.851Z,10.00
2022-11-30T08:54:36.585Z,10.00
2022-11-30T08:57:03.577Z,10.00
2022-11-30T08:59:31.233Z,10.00
2022-11-30T09:01:58.191Z,10.00
2022-11-30T09:04:25.145Z,10.00
2022-11-30T09:06:52.039Z,9.90
2022-11-30T09:09:18.987Z,10.00
2022-11-30T09:11:45.951Z,10.00
2022-11-30T09:14:12.871Z,10.00
2022-11-30T09:16:39.928Z,10.00
2022-11-30T09:19:06.914Z,10.10
2022-11-30T09:21:34.092Z,10.00
2022-11-30T09:24:01.040Z,10.00
2022-11-30T09:26:28.096Z,9.90
2022-11-30T09:28:55.116Z,9.80
2022-11-30T09:31:23.312Z,9.80
2022-11-30T09:33:50.752Z,9.80
2022-11-30T09:36:19.117Z,9.70
2022-11-30T09:38:46.420Z,9.70
2022-11-30T09:41:28.373Z,9.70
2022-11-30T09:44:01.324Z,9.60
2022-11-30T09:46:31.029Z,9.60
2022-11-30T09:49:02.712Z,9.70
2022-11-30T09:51:32.637Z,9.70
2022-11-30T09:54:02.125Z,9.70
2022-11-30T09:56:30.637Z,9.70
2022-11-30T09:59:16.187Z,9.70
2022-11-30T10:01:46.025Z,9.80
2022-11-30T10:04:23.719Z,9.80
2022-11-30T10:06:50.678Z,9.90
2022-11-30T10:09:29.625Z,10.00
2022-11-30T10:12:01.518Z,10.00
2022-11-30T10:14:59.833Z,10.10
2022-11-30T10:17:45.777Z,10.10
2022-11-30T10:20:18.996Z,10.10
2022-11-30T10:22:51.674Z,10.10
2022-11-30T10:25:23.227Z,10.10
2022-11-30T10:27:54.180Z,10.20
2022-11-30T10:30:24.759Z,10.20
2022-11-30T10:32:53.486Z,10.20
2022-11-30T10:35:20.431Z,10.20
2022-11-30T10:37:49.246Z,10.20
2022-11-30T10:40:31.181Z,10.20
2022-11-30T10:43:06.950Z,10.20
2022-11-30T10:45:35.339Z,10.30
2022-11-30T10:48:12.849Z,10.30
2022-11-30T10:50:39.961Z,10.30
2022-11-30T10:53:09.052Z,10.40
2022-11-30T10:55:38.778Z,10.40
2022-11-30T10:58:17.411Z,10.50
2022-11-30T11:00:48.699Z,10.50
2022-11-30T11:03:25.596Z,10.50
2022-11-30T11:06:12.775Z,10.50
2022-11-30T11:08:42.202Z,10.40
2022-11-30T11:11:26.100Z,10.40
2022-11-30T11:13:53.049Z,10.40
2022-11-30T11:16:20.198Z,10.50
2022-11-30T11:18:54.329Z,10.40
2022-11-30T11:21:22.034Z,10.50
2022-11-30T11:23:51.403Z,10.50
2022-11-30T11:26:25.226Z,10.50
2022-11-30T11:28:53.744Z,10.40
2022-11-30T11:31:37.752Z,10.40
2022-11-30T11:34:05.840Z,10.30
2022-11-30T11:36:33.511Z,10.30
2022-11-30T11:39:01.131Z,10.20
2022-11-30T11:41:29.650Z,10.20
2022-11-30T11:44:02.464Z,10.10
2022-11-30T11:46:33.617Z,10.10
2022-11-30T11:49:02.119Z,10.10
2022-11-30T11:51:39.515Z,10.10
2022-11-30T11:54:19.136Z,10.10
2022-11-30T11:56:46.778Z,10.10
2022-11-30T11:59:18.008Z,10.10
2022-11-30T12:01:44.905Z,10.10
2022-11-30T12:04:17.933Z,10.10
2022-11-30T12:06:45.373Z,10.10
2022-11-30T12:09:15.141Z,10.10
2022-11-30T12:11:44.072Z,10.00
2022-11-30T12:14:12.503Z,10.00
2022-11-30T12:16:54.462Z,10.00
2022-11-30T12:19:27.256Z,10.00
2022-11-30T12:22:03.412Z,9.90
2022-11-30T12:24:39.401Z,9.90
2022-11-30T12:27:18.393Z,9.80
2022-11-30T12:29:55.621Z,9.80
2022-11-30T12:32:28.404Z,9.70
2022-11-30T12:35:10.501Z,9.70
2022-11-30T12:37:48.597Z,9.70
2022-11-30T12:40:18.253Z,9.70
2022-11-30T12:42:45.146Z,9.70
2022-11-30T12:45:24.034Z,9.60
2022-11-30T12:48:01.495Z,9.50
2022-11-30T12:50:34.539Z,9.50
2022-11-30T12:53:16.933Z,9.50
2022-11-30T12:55:43.922Z,9.50
2022-11-30T12:58:24.965Z,9.50
2022-11-30T13:00:51.960Z,9.40
2022-11-30T13:03:18.869Z,9.50
2022-11-30T13:05:48.099Z,9.50
2022-11-30T13:08:20.002Z,9.50
2022-11-30T13:10:49.357Z,9.50
2022-11-30T13:13:18.883Z,9.50
2022-11-30T13:15:46.877Z,9.50
2022-11-30T13:18:17.084Z,9.40
2022-11-30T13:20:44.107Z,9.40
2022-11-30T13:23:13.895Z,9.40
2022-11-30T13:26:07.973Z,9.40
2022-11-30T13:28:38.626Z,9.30
2022-11-30T13:31:17.707Z,9.30
2022-11-30T13:33:44.674Z,9.30
2022-11-30T13:36:26.594Z,9.20
2022-11-30T13:39:08.035Z,9.20
2022-11-30T13:41:35.481Z,9.30
2022-11-30T13:44:03.095Z,9.30
2022-11-30T13:46:30.284Z,9.30
2022-11-30T13:49:15.966Z,9.30
2022-11-30T13:51:42.973Z,9.30
2022-11-30T13:54:28.588Z,9.30
2022-11-30T13:56:55.508Z,9.30
2022-11-30T13:59:25.234Z,9.30
2022-11-30T14:01:53.328Z,9.30
2022-11-30T14:04:22.659Z,9.30
2022-11-30T14:06:50.951Z,9.30
2022-11-30T14:09:37.790Z,9.30
2022-11-30T14:12:40.795Z,9.20
2022-11-30T14:15:25.980Z,9.20
2022-11-30T14:17:55.411Z,9.20
2022-11-30T14:20:25.144Z,9.20
2022-11-30T14:22:52.113Z,9.30
2022-11-30T14:25:20.508Z,9.30
2022-11-30T14:27:48.868Z,9.30
2022-11-30T14:30:17.963Z,9.40
2022-11-30T14:32:47.241Z,9.40
2022-11-30T14:35:16.653Z,9.40
2022-11-30T14:37:52.322Z,9.40
2022-11-30T14:40:20.315Z,9.40
2022-11-30T14:42:48.840Z,9.40
2022-11-30T14:45:27.016Z,9.40
2022-11-30T14:48:05.553Z,9.50
2022-11-30T14:50:32.775Z,9.50
2022-11-30T14:53:03.913Z,9.50
2022-11-30T14:55:32.071Z,9.50
2022-11-30T14:58:17.706Z,9.60
2022-11-30T15:00:45.666Z,9.60
2022-11-30T15:03:20.829Z,9.60
2022-11-30T15:05:50.159Z,9.60
2022-11-30T15:08:17.237Z,9.60
2022-11-30T15:10:44.522Z,9.60
2022-11-30T15:13:13.457Z,9.60
2022-11-30T15:15:49.429Z,9.50
2022-11-30T15:18:18.014Z,9.60
2022-11-30T15:20:49.080Z,9.60
2022-11-30T15:23:16.496Z,9.60
2022-11-30T15:25:45.140Z,9.50
2022-11-30T15:28:13.968Z,9.50
2022-11-30T15:30:43.105Z,9.50
2022-11-30T15:33:18.240Z,9.50
2022-11-30T15:36:13.794Z,9.50
2022-11-30T15:38:33.231Z,9.40
2022-11-30T15:41:12.814Z,9.40
2022-11-30T15:43:40.028Z,9.40
2022-11-30T15:46:07.428Z,9.40
2022-11-30T15:48:40.357Z,9.40
2022-11-30T15:51:07.390Z,9.40
2022-11-30T15:53:50.844Z,9.40
2022-11-30T15:56:25.094Z,9.40
2022-11-30T15:59:15.064Z,9.40
2022-11-30T16:02:15.327Z,9.40
2022-11-30T16:04:57.477Z,9.40
2022-11-30T16:07:25.126Z,9.30
2022-11-30T16:09:52.232Z,9.30
2022-11-30T16:12:32.092Z,9.30
2022-11-30T16:14:59.275Z,9.20
2022-11-30T16:17:28.026Z,9.20
2022-11-30T16:19:54.959Z,9.30
2022-11-30T16:22:21.863Z,9.30
2022-11-30T16:24:48.743Z,9.40
2022-11-30T16:27:19.463Z,9.20
2022-11-30T16:29:51.886Z,9.20
2022-11-30T16:32:19.575Z,9.20
2022-11-30T16:34:47.653Z,9.20
2022-11-30T16:37:14.740Z,9.40
2022-11-30T16:39:41.782Z,9.20
2022-11-30T16:42:11.950Z,9.20
2022-11-30T16:44:38.846Z,9.30
2022-11-30T16:47:05.785Z,9.30
2022-11-30T16:49:32.667Z,9.30
2022-11-30T16:51:59.639Z,9.30
2022-11-30T16:54:26.745Z,9.30
2022-11-30T16:56:53.658Z,9.30
2022-11-30T16:59:20.601Z,9.30
2022-11-30T17:01:52.644Z,9.20
2022-11-30T17:04:20.820Z,9.20
2022-11-30T17:06:50.580Z,9.20
2022-11-30T17:09:19.458Z,9.20
2022-11-30T17:11:47.455Z,9.20
2022-11-30T17:14:14.534Z,9.20
2022-11-30T17:16:41.684Z,9.30
2022-11-30T17:19:09.239Z,9.10
2022-11-30T17:21:36.850Z,9.10
2022-11-30T17:24:04.388Z,9.10
2022-11-30T17:26:31.278Z,9.10
2022-11-30T17:28:58.199Z,9.10
2022-11-30T17:31:25.184Z,9.10
2022-11-30T17:33:52.174Z,9.10
2022-11-30T17:36:19.117Z,9.10
2022-11-30T17:38:46.034Z,9.10
2022-11-30T17:41:18.858Z,9.10
2022-11-30T17:43:47.241Z,9.10
2022-11-30T17:46:15.917Z,9.10
2022-11-30T17:48:43.649Z,9.10
2022-11-30T17:51:10.962Z,9.20
2022-11-30T17:53:38.425Z,9.20
2022-11-30T17:56:06.625Z,9.20
2022-11-30T17:58:36.105Z,9.20
2022-11-30T18:01:05.545Z,9.20
2022-11-30T18:03:32.524Z,9.20
2022-11-30T18:06:00.612Z,9.20
2022-11-30T18:08:28.201Z,9.20
2022-11-30T18:10:55.910Z,9.10
2022-11-30T18:13:22.911Z,9.10
2022-11-30T18:15:49.814Z,9.20
2022-11-30T18:18:16.762Z,9.20
2022-11-30T18:20:43.711Z,9.20
2022-11-30T18:23:10.700Z,9.20
2022-11-30T18:25:37.742Z,9.20
2022-11-30T18:28:04.619Z,9.20
2022-11-30T18:30:31.567Z,9.20
2022-11-30T18:32:58.525Z,9.30
2022-11-30T18:35:25.594Z,9.30
2022-11-30T18:37:52.561Z,9.30
2022-11-30T18:40:19.534Z,9.30
2022-11-30T18:42:47.171Z,9.20
2022-11-30T18:45:14.088Z,9.20
2022-11-30T18:47:40.992Z,9.20
2022-11-30T18:50:07.984Z,9.10
2022-11-30T18:52:34.862Z,9.00
2022-11-30T18:55:01.765Z,9.00
2022-11-30T18:57:28.838Z,9.00
2022-11-30T18:59:55.769Z,9.00
2022-11-30T19:02:22.870Z,9.00
2022-11-30T19:04:50.256Z,9.00
2022-11-30T19:07:17.323Z,9.00
2022-11-30T19:09:44.279Z,9.00
2022-11-30T19:12:11.411Z,9.00
2022-11-30T19:14:38.284Z,9.20
2022-11-30T19:17:05.471Z,9.00
2022-11-30T19:19:32.457Z,9.00
2022-11-30T19:21:59.379Z,8.90
2022-11-30T19:24:26.370Z,8.90
2022-11-30T19:26:53.390Z,8.90
2022-11-30T19:29:20.333Z,8.90
2022-11-30T19:31:47.285Z,8.90
2022-11-30T19:34:14.315Z,8.90
2022-11-30T19:36:41.595Z,8.90
2022-11-30T19:39:09.279Z,8.90
2022-11-30T19:41:36.151Z,8.90
2022-11-30T19:44:04.327Z,8.90
2022-11-30T19:46:33.035Z,8.80
2022-11-30T19:49:01.375Z,8.80
2022-11-30T19:51:29.713Z,8.80
2022-11-30T19:53:57.400Z,8.80
2022-11-30T19:56:24.925Z,8.80
2022-11-30T19:58:52.255Z,8.90
2022-11-30T20:01:22.773Z,9.00
2022-11-30T20:03:54.061Z,8.90
2022-11-30T20:06:23.509Z,9.00
2022-11-30T20:08:50.384Z,9.00
2022-11-30T20:11:17.282Z,9.00
2022-11-30T20:13:44.270Z,9.00
2022-11-30T20:16:15.813Z,9.00
2022-11-30T20:18:46.343Z,9.10
2022-11-30T20:21:15.084Z,9.20
2022-11-30T20:23:42.815Z,9.20
2022-11-30T20:26:17.576Z,9.20
2022-11-30T20:28:45.940Z,9.30
2022-11-30T20:31:14.023Z,9.30
2022-11-30T20:33:40.973Z,9.30
2022-11-30T20:36:08.772Z,9.30
2022-11-30T20:38:36.103Z,9.30
2022-11-30T20:41:03.735Z,9.30
2022-11-30T20:43:30.808Z,9.40
2022-11-30T20:45:57.809Z,9.40
2022-11-30T20:48:24.794Z,9.40
2022-11-30T20:51:22.281Z,9.40
2022-11-30T20:53:38.774Z,9.40
2022-11-30T20:56:05.799Z,9.40
2022-11-30T20:58:33.127Z,9.40
2022-11-30T21:01:00.687Z,9.40
2022-11-30T21:03:28.268Z,9.40
2022-11-30T21:05:55.240Z,9.40
2022-11-30T21:08:22.607Z,9.40
2022-11-30T21:10:49.478Z,9.40
2022-11-30T21:13:16.356Z,9.40
2022-11-30T21:15:43.389Z,9.40
2022-11-30T21:18:10.406Z,9.40
2022-11-30T21:20:37.338Z,9.60
2022-11-30T21:23:04.243Z,9.40
2022-11-30T21:25:31.119Z,9.60
2022-11-30T21:27:58.055Z,9.40
2022-11-30T21:30:24.996Z,9.40
2022-11-30T21:32:51.930Z,9.40
2022-11-30T21:35:18.857Z,9.40
2022-11-30T21:37:45.826Z,9.30
2022-11-30T21:40:13.230Z,9.40
2022-11-30T21:42:40.200Z,9.30
2022-11-30T21:45:07.386Z,9.30
2022-11-30T21:47:34.317Z,9.30
2022-11-30T21:50:01.239Z,9.40
2022-11-30T21:52:28.131Z,9.30
2022-11-30T21:54:55.199Z,9.30
2022-11-30T21:57:22.160Z,9.30
2022-11-30T21:59:49.371Z,9.30
2022-11-30T22:02:16.497Z,9.30
2022-11-30T22:04:43.405Z,9.30
2022-11-30T22:07:11.644Z,9.30
2022-11-30T22:09:38.714Z,9.30
2022-11-30T22:12:05.672Z,9.30
2022-11-30T22:14:32.832Z,9.20
2022-11-30T22:16:59.777Z,9.10
2022-11-30T22:19:26.673Z,9.20
2022-11-30T22:21:53.699Z,9.40
2022-11-30T22:24:20.606Z,9.20
2022-11-30T22:26:49.027Z,9.20
2022-11-30T22:29:17.497Z,9.20
2022-11-30T22:31:45.945Z,9.20
2022-11-30T22:34:13.053Z,9.20
2022-11-30T22:36:40.709Z,9.20
2022-11-30T22:39:10.274Z,9.20
2022-11-30T22:41:38.136Z,9.20
2022-11-30T22:44:05.477Z,9.30
2022-11-30T22:46:33.598Z,9.30
2022-11-30T22:49:01.065Z,9.30
2022-11-30T22:51:28.833Z,9.30
2022-11-30T22:53:56.213Z,9.20
2022-11-30T22:56:27.435Z,9.30
2022-11-30T22:58:55.704Z,9.30
2022-11-30T23:01:26.837Z,9.20
2022-11-30T23:03:56.262Z,9.30
2022-11-30T23:06:24.087Z,9.30
2022-11-30T23:08:51.796Z,9.30
2022-11-30T23:11:22.817Z,9.50
2022-11-30T23:13:50.268Z,9.20
2022-11-30T23:16:17.747Z,9.20
2022-11-30T23:18:48.898Z,9.30
2022-11-30T23:21:19.915Z,9.20
2022-11-30T23:23:47.286Z,9.20
2022-11-30T23:26:18.417Z,9.20
2022-11-30T23:28:46.345Z,9.20
2022-11-30T23:31:34.113Z,9.20
2022-11-30T23:34:02.322Z,9.10
2022-11-30T23:36:29.226Z,9.10
2022-11-30T23:39:00.927Z,9.20
2022-11-30T23:41:28.095Z,9.20
2022-11-30T23:43:55.133Z,9.20
2022-11-30T23:46:22.077Z,9.20
2022-11-30T23:48:49.472Z,9.20
2022-11-30T23:51:16.400Z,9.30
2022-11-30T23:53:43.431Z,9.10
2022-11-30T23:56:13.021Z,9.10
2022-11-30T23:58:39.906Z,9.10
